sensor_id;sensor_type;location;lat;lon;timestamp;P1;durP1;ratioP1;P2;durP2;ratioP2
12838;SDS011;6486;51.034;5.262;2023-07-22T00:00:25;1.23;;;1.10;;
12838;SDS011;6486;51.034;5.262;2023-07-22T00:02:51;1.90;;;1.80;;
12838;SDS011;6486;51.034;5.262;2023-07-22T00:05:17;3.80;;;0.90;;
12838;SDS011;6486;51.034;5.262;2023-07-22T00:07:48;0.90;;;0.90;;
12838;SDS011;6486;51.034;5.262;2023-07-22T00:10:16;0.83;;;0.67;;
12838;SDS011;6486;51.034;5.262;2023-07-22T00:12:42;1.00;;;1.00;;
12838;SDS011;6486;51.034;5.262;2023-07-22T00:15:07;0.77;;;0.77;;
12838;SDS011;6486;51.034;5.262;2023-07-22T00:17:36;1.67;;;0.97;;
12838;SDS011;6486;51.034;5.262;2023-07-22T00:20:03;1.20;;;1.10;;
12838;SDS011;6486;51.034;5.262;2023-07-22T00:22:29;1.03;;;0.80;;
12838;SDS011;6486;51.034;5.262;2023-07-22T00:24:56;1.27;;;1.17;;
12838;SDS011;6486;51.034;5.262;2023-07-22T00:27:24;1.10;;;1.00;;
12838;SDS011;6486;51.034;5.262;2023-07-22T00:29:50;1.13;;;0.80;;
12838;SDS011;6486;51.034;5.262;2023-07-22T00:32:16;5.13;;;1.53;;
12838;SDS011;6486;51.034;5.262;2023-07-22T00:34:42;1.80;;;1.13;;
12838;SDS011;6486;51.034;5.262;2023-07-22T00:37:07;0.63;;;0.63;;
12838;SDS011;6486;51.034;5.262;2023-07-22T00:39:33;1.77;;;1.03;;
12838;SDS011;6486;51.034;5.262;2023-07-22T00:41:59;0.97;;;0.87;;
12838;SDS011;6486;51.034;5.262;2023-07-22T00:44:25;0.93;;;0.83;;
12838;SDS011;6486;51.034;5.262;2023-07-22T00:46:52;1.03;;;1.03;;
12838;SDS011;6486;51.034;5.262;2023-07-22T00:49:21;1.20;;;1.10;;
12838;SDS011;6486;51.034;5.262;2023-07-22T00:51:48;3.50;;;1.50;;
12838;SDS011;6486;51.034;5.262;2023-07-22T00:54:14;1.50;;;1.40;;
12838;SDS011;6486;51.034;5.262;2023-07-22T00:56:40;2.27;;;1.50;;
12838;SDS011;6486;51.034;5.262;2023-07-22T00:59:06;0.60;;;0.60;;
12838;SDS011;6486;51.034;5.262;2023-07-22T01:01:32;1.07;;;0.63;;
12838;SDS011;6486;51.034;5.262;2023-07-22T01:03:58;0.60;;;0.60;;
12838;SDS011;6486;51.034;5.262;2023-07-22T01:06:25;1.63;;;1.53;;
12838;SDS011;6486;51.034;5.262;2023-07-22T01:08:54;1.33;;;1.23;;
12838;SDS011;6486;51.034;5.262;2023-07-22T01:11:19;2.50;;;1.73;;
12838;SDS011;6486;51.034;5.262;2023-07-22T01:13:45;1.47;;;1.33;;
12838;SDS011;6486;51.034;5.262;2023-07-22T01:16:10;1.37;;;1.07;;
12838;SDS011;6486;51.034;5.262;2023-07-22T01:18:37;0.73;;;0.50;;
12838;SDS011;6486;51.034;5.262;2023-07-22T01:21:03;4.50;;;0.90;;
12838;SDS011;6486;51.034;5.262;2023-07-22T01:23:30;2.10;;;1.80;;
12838;SDS011;6486;51.034;5.262;2023-07-22T01:25:56;2.00;;;1.20;;
12838;SDS011;6486;51.034;5.262;2023-07-22T01:28:21;1.20;;;0.67;;
12838;SDS011;6486;51.034;5.262;2023-07-22T01:30:47;2.17;;;1.50;;
12838;SDS011;6486;51.034;5.262;2023-07-22T01:33:14;1.27;;;1.13;;
12838;SDS011;6486;51.034;5.262;2023-07-22T01:35:39;1.40;;;1.30;;
12838;SDS011;6486;51.034;5.262;2023-07-22T01:38:05;1.17;;;1.00;;
12838;SDS011;6486;51.034;5.262;2023-07-22T01:40:33;1.43;;;1.00;;
12838;SDS011;6486;51.034;5.262;2023-07-22T01:42:58;3.17;;;1.20;;
12838;SDS011;6486;51.034;5.262;2023-07-22T01:45:24;1.40;;;1.13;;
12838;SDS011;6486;51.034;5.262;2023-07-22T01:47:50;1.43;;;1.10;;
12838;SDS011;6486;51.034;5.262;2023-07-22T01:50:16;1.40;;;1.37;;
12838;SDS011;6486;51.034;5.262;2023-07-22T01:52:43;4.10;;;1.93;;
12838;SDS011;6486;51.034;5.262;2023-07-22T01:55:11;3.67;;;1.77;;
12838;SDS011;6486;51.034;5.262;2023-07-22T01:57:37;0.90;;;0.90;;
12838;SDS011;6486;51.034;5.262;2023-07-22T02:00:04;1.53;;;0.90;;
12838;SDS011;6486;51.034;5.262;2023-07-22T02:02:30;1.87;;;1.77;;
12838;SDS011;6486;51.034;5.262;2023-07-22T02:04:56;1.13;;;0.80;;
12838;SDS011;6486;51.034;5.262;2023-07-22T02:07:21;2.60;;;1.30;;
12838;SDS011;6486;51.034;5.262;2023-07-22T02:09:51;4.50;;;1.47;;
12838;SDS011;6486;51.034;5.262;2023-07-22T02:12:17;1.37;;;1.20;;
12838;SDS011;6486;51.034;5.262;2023-07-22T02:14:43;0.87;;;0.87;;
12838;SDS011;6486;51.034;5.262;2023-07-22T02:17:08;1.03;;;0.97;;
12838;SDS011;6486;51.034;5.262;2023-07-22T02:19:34;2.20;;;2.00;;
12838;SDS011;6486;51.034;5.262;2023-07-22T02:22:00;1.07;;;1.07;;
12838;SDS011;6486;51.034;5.262;2023-07-22T02:24:25;1.50;;;1.40;;
12838;SDS011;6486;51.034;5.262;2023-07-22T02:26:51;1.30;;;1.17;;
12838;SDS011;6486;51.034;5.262;2023-07-22T02:29:17;2.93;;;0.50;;
12838;SDS011;6486;51.034;5.262;2023-07-22T02:31:44;3.00;;;1.83;;
12838;SDS011;6486;51.034;5.262;2023-07-22T02:34:11;1.27;;;1.00;;
12838;SDS011;6486;51.034;5.262;2023-07-22T02:36:37;1.87;;;1.63;;
12838;SDS011;6486;51.034;5.262;2023-07-22T02:39:03;1.73;;;1.13;;
12838;SDS011;6486;51.034;5.262;2023-07-22T02:41:28;1.83;;;1.73;;
12838;SDS011;6486;51.034;5.262;2023-07-22T02:43:54;3.37;;;0.87;;
12838;SDS011;6486;51.034;5.262;2023-07-22T02:46:19;1.57;;;1.17;;
12838;SDS011;6486;51.034;5.262;2023-07-22T02:48:45;1.77;;;1.67;;
12838;SDS011;6486;51.034;5.262;2023-07-22T02:51:11;2.10;;;0.73;;
12838;SDS011;6486;51.034;5.262;2023-07-22T02:53:36;1.63;;;1.47;;
12838;SDS011;6486;51.034;5.262;2023-07-22T02:56:03;2.87;;;1.00;;
12838;SDS011;6486;51.034;5.262;2023-07-22T02:58:32;2.50;;;1.83;;
12838;SDS011;6486;51.034;5.262;2023-07-22T03:00:58;1.40;;;1.17;;
12838;SDS011;6486;51.034;5.262;2023-07-22T03:03:24;1.60;;;1.50;;
12838;SDS011;6486;51.034;5.262;2023-07-22T03:05:50;1.00;;;1.00;;
12838;SDS011;6486;51.034;5.262;2023-07-22T03:08:17;1.33;;;1.07;;
12838;SDS011;6486;51.034;5.262;2023-07-22T03:10:43;1.43;;;1.27;;
12838;SDS011;6486;51.034;5.262;2023-07-22T03:13:13;1.30;;;1.20;;
12838;SDS011;6486;51.034;5.262;2023-07-22T03:15:39;1.43;;;1.33;;
12838;SDS011;6486;51.034;5.262;2023-07-22T03:18:05;2.37;;;1.07;;
12838;SDS011;6486;51.034;5.262;2023-07-22T03:20:31;2.90;;;1.50;;
12838;SDS011;6486;51.034;5.262;2023-07-22T03:22:57;1.60;;;0.77;;
12838;SDS011;6486;51.034;5.262;2023-07-22T03:25:22;2.57;;;1.70;;
12838;SDS011;6486;51.034;5.262;2023-07-22T03:27:48;2.83;;;1.27;;
12838;SDS011;6486;51.034;5.262;2023-07-22T03:30:14;4.30;;;3.37;;
12838;SDS011;6486;51.034;5.262;2023-07-22T03:32:45;0.77;;;0.77;;
12838;SDS011;6486;51.034;5.262;2023-07-22T03:35:12;0.80;;;0.80;;
12838;SDS011;6486;51.034;5.262;2023-07-22T03:37:39;1.50;;;1.50;;
12838;SDS011;6486;51.034;5.262;2023-07-22T03:40:05;2.60;;;2.40;;
12838;SDS011;6486;51.034;5.262;2023-07-22T03:42:52;3.20;;;2.33;;
12838;SDS011;6486;51.034;5.262;2023-07-22T03:45:19;9.70;;;2.00;;
12838;SDS011;6486;51.034;5.262;2023-07-22T03:47:46;4.67;;;2.17;;
12838;SDS011;6486;51.034;5.262;2023-07-22T03:50:14;1.70;;;1.60;;
12838;SDS011;6486;51.034;5.262;2023-07-22T03:52:40;3.53;;;1.87;;
12838;SDS011;6486;51.034;5.262;2023-07-22T03:55:06;2.27;;;1.40;;
12838;SDS011;6486;51.034;5.262;2023-07-22T03:57:32;2.13;;;1.27;;
12838;SDS011;6486;51.034;5.262;2023-07-22T03:59:57;5.50;;;2.23;;
12838;SDS011;6486;51.034;5.262;2023-07-22T04:02:23;1.83;;;1.73;;
12838;SDS011;6486;51.034;5.262;2023-07-22T04:04:53;2.37;;;2.17;;
12838;SDS011;6486;51.034;5.262;2023-07-22T04:07:19;1.23;;;1.20;;
12838;SDS011;6486;51.034;5.262;2023-07-22T04:09:45;3.63;;;1.90;;
12838;SDS011;6486;51.034;5.262;2023-07-22T04:12:11;1.33;;;1.23;;
12838;SDS011;6486;51.034;5.262;2023-07-22T04:14:37;1.73;;;1.23;;
12838;SDS011;6486;51.034;5.262;2023-07-22T04:17:04;4.10;;;0.97;;
12838;SDS011;6486;51.034;5.262;2023-07-22T04:19:30;3.33;;;2.03;;
12838;SDS011;6486;51.034;5.262;2023-07-22T04:21:56;5.60;;;2.53;;
12838;SDS011;6486;51.034;5.262;2023-07-22T04:24:21;3.10;;;2.03;;
12838;SDS011;6486;51.034;5.262;2023-07-22T04:26:47;1.50;;;1.20;;
12838;SDS011;6486;51.034;5.262;2023-07-22T04:29:13;2.13;;;1.20;;
12838;SDS011;6486;51.034;5.262;2023-07-22T04:31:39;3.80;;;2.00;;
12838;SDS011;6486;51.034;5.262;2023-07-22T04:34:05;3.53;;;1.83;;
12838;SDS011;6486;51.034;5.262;2023-07-22T04:36:31;2.23;;;2.10;;
12838;SDS011;6486;51.034;5.262;2023-07-22T04:38:56;2.83;;;2.57;;
12838;SDS011;6486;51.034;5.262;2023-07-22T04:41:22;6.20;;;2.77;;
12838;SDS011;6486;51.034;5.262;2023-07-22T04:43:48;2.07;;;1.87;;
12838;SDS011;6486;51.034;5.262;2023-07-22T04:46:15;1.83;;;1.73;;
12838;SDS011;6486;51.034;5.262;2023-07-22T04:48:41;2.43;;;2.00;;
12838;SDS011;6486;51.034;5.262;2023-07-22T04:51:07;4.53;;;2.07;;
12838;SDS011;6486;51.034;5.262;2023-07-22T04:53:33;2.73;;;1.70;;
12838;SDS011;6486;51.034;5.262;2023-07-22T04:55:58;1.93;;;1.57;;
12838;SDS011;6486;51.034;5.262;2023-07-22T04:58:24;2.97;;;2.77;;
12838;SDS011;6486;51.034;5.262;2023-07-22T05:00:50;4.90;;;2.30;;
12838;SDS011;6486;51.034;5.262;2023-07-22T05:03:16;2.40;;;2.20;;
12838;SDS011;6486;51.034;5.262;2023-07-22T05:05:43;2.53;;;2.17;;
12838;SDS011;6486;51.034;5.262;2023-07-22T05:08:08;1.90;;;1.80;;
12838;SDS011;6486;51.034;5.262;2023-07-22T05:10:34;2.17;;;1.97;;
12838;SDS011;6486;51.034;5.262;2023-07-22T05:12:59;4.10;;;2.20;;
12838;SDS011;6486;51.034;5.262;2023-07-22T05:15:25;3.13;;;2.10;;
12838;SDS011;6486;51.034;5.262;2023-07-22T05:17:51;4.83;;;2.37;;
12838;SDS011;6486;51.034;5.262;2023-07-22T05:20:17;4.47;;;2.37;;
12838;SDS011;6486;51.034;5.262;2023-07-22T05:22:42;3.03;;;2.73;;
12838;SDS011;6486;51.034;5.262;2023-07-22T05:25:08;2.73;;;1.57;;
12838;SDS011;6486;51.034;5.262;2023-07-22T05:27:35;2.77;;;2.37;;
12838;SDS011;6486;51.034;5.262;2023-07-22T05:30:00;8.03;;;2.57;;
12838;SDS011;6486;51.034;5.262;2023-07-22T05:32:29;2.23;;;2.07;;
12838;SDS011;6486;51.034;5.262;2023-07-22T05:34:55;2.50;;;2.03;;
12838;SDS011;6486;51.034;5.262;2023-07-22T05:37:21;2.03;;;1.83;;
12838;SDS011;6486;51.034;5.262;2023-07-22T05:39:47;3.50;;;2.77;;
12838;SDS011;6486;51.034;5.262;2023-07-22T05:42:13;5.73;;;3.13;;
12838;SDS011;6486;51.034;5.262;2023-07-22T05:44:38;2.30;;;2.10;;
12838;SDS011;6486;51.034;5.262;2023-07-22T05:47:04;3.30;;;2.93;;
12838;SDS011;6486;51.034;5.262;2023-07-22T05:49:30;6.33;;;2.33;;
12838;SDS011;6486;51.034;5.262;2023-07-22T05:51:56;7.70;;;3.07;;
12838;SDS011;6486;51.034;5.262;2023-07-22T05:54:21;2.47;;;1.87;;
12838;SDS011;6486;51.034;5.262;2023-07-22T05:56:47;2.40;;;1.63;;
12838;SDS011;6486;51.034;5.262;2023-07-22T05:59:13;2.37;;;2.20;;
12838;SDS011;6486;51.034;5.262;2023-07-22T06:01:38;3.57;;;3.07;;
12838;SDS011;6486;51.034;5.262;2023-07-22T06:04:04;4.10;;;1.90;;
12838;SDS011;6486;51.034;5.262;2023-07-22T06:06:30;4.03;;;2.57;;
12838;SDS011;6486;51.034;5.262;2023-07-22T06:08:56;3.90;;;2.03;;
12838;SDS011;6486;51.034;5.262;2023-07-22T06:11:22;8.07;;;2.00;;
12838;SDS011;6486;51.034;5.262;2023-07-22T06:13:47;2.63;;;1.87;;
12838;SDS011;6486;51.034;5.262;2023-07-22T06:16:13;2.00;;;1.83;;
12838;SDS011;6486;51.034;5.262;2023-07-22T06:18:39;2.07;;;1.87;;
12838;SDS011;6486;51.034;5.262;2023-07-22T06:21:05;4.10;;;2.03;;
12838;SDS011;6486;51.034;5.262;2023-07-22T06:23:30;1.13;;;1.10;;
12838;SDS011;6486;51.034;5.262;2023-07-22T06:25:56;2.23;;;1.73;;
12838;SDS011;6486;51.034;5.262;2023-07-22T06:28:21;2.70;;;2.43;;
12838;SDS011;6486;51.034;5.262;2023-07-22T06:30:47;1.83;;;1.67;;
12838;SDS011;6486;51.034;5.262;2023-07-22T06:33:13;3.17;;;2.87;;
12838;SDS011;6486;51.034;5.262;2023-07-22T06:35:38;1.50;;;1.40;;
12838;SDS011;6486;51.034;5.262;2023-07-22T06:38:04;2.43;;;1.73;;
12838;SDS011;6486;51.034;5.262;2023-07-22T06:40:29;2.60;;;2.07;;
12838;SDS011;6486;51.034;5.262;2023-07-22T06:42:55;2.87;;;1.50;;
12838;SDS011;6486;51.034;5.262;2023-07-22T06:45:21;12.43;;;1.50;;
12838;SDS011;6486;51.034;5.262;2023-07-22T06:47:46;2.17;;;2.07;;
12838;SDS011;6486;51.034;5.262;2023-07-22T06:50:12;2.20;;;1.77;;
12838;SDS011;6486;51.034;5.262;2023-07-22T06:52:37;2.67;;;2.13;;
12838;SDS011;6486;51.034;5.262;2023-07-22T06:55:03;3.57;;;2.40;;
12838;SDS011;6486;51.034;5.262;2023-07-22T06:57:30;2.20;;;2.00;;
12838;SDS011;6486;51.034;5.262;2023-07-22T06:59:55;14.57;;;2.53;;
12838;SDS011;6486;51.034;5.262;2023-07-22T07:02:21;3.40;;;2.43;;
12838;SDS011;6486;51.034;5.262;2023-07-22T07:04:47;2.00;;;1.90;;
12838;SDS011;6486;51.034;5.262;2023-07-22T07:07:14;3.70;;;1.80;;
12838;SDS011;6486;51.034;5.262;2023-07-22T07:09:41;2.93;;;2.63;;
12838;SDS011;6486;51.034;5.262;2023-07-22T07:12:06;1.00;;;1.00;;
12838;SDS011;6486;51.034;5.262;2023-07-22T07:14:33;2.63;;;1.83;;
12838;SDS011;6486;51.034;5.262;2023-07-22T07:16:59;1.73;;;1.63;;
12838;SDS011;6486;51.034;5.262;2023-07-22T07:19:25;2.80;;;2.60;;
12838;SDS011;6486;51.034;5.262;2023-07-22T07:21:51;5.97;;;1.73;;
12838;SDS011;6486;51.034;5.262;2023-07-22T07:24:17;2.13;;;1.87;;
12838;SDS011;6486;51.034;5.262;2023-07-22T07:26:43;3.93;;;2.07;;
12838;SDS011;6486;51.034;5.262;2023-07-22T07:29:09;4.63;;;1.97;;
12838;SDS011;6486;51.034;5.262;2023-07-22T07:31:35;1.27;;;1.10;;
12838;SDS011;6486;51.034;5.262;2023-07-22T07:34:01;2.17;;;1.97;;
12838;SDS011;6486;51.034;5.262;2023-07-22T07:36:27;1.63;;;1.47;;
12838;SDS011;6486;51.034;5.262;2023-07-22T07:38:53;1.60;;;1.37;;
12838;SDS011;6486;51.034;5.262;2023-07-22T07:41:18;4.00;;;1.73;;
12838;SDS011;6486;51.034;5.262;2023-07-22T07:43:44;2.97;;;1.40;;
12838;SDS011;6486;51.034;5.262;2023-07-22T07:46:23;3.30;;;1.70;;
12838;SDS011;6486;51.034;5.262;2023-07-22T07:48:54;1.33;;;1.00;;
12838;SDS011;6486;51.034;5.262;2023-07-22T07:51:21;1.93;;;1.30;;
12838;SDS011;6486;51.034;5.262;2023-07-22T07:53:49;3.37;;;2.07;;
12838;SDS011;6486;51.034;5.262;2023-07-22T07:56:15;7.23;;;1.70;;
12838;SDS011;6486;51.034;5.262;2023-07-22T07:58:42;1.97;;;1.17;;
12838;SDS011;6486;51.034;5.262;2023-07-22T08:01:09;1.40;;;1.10;;
12838;SDS011;6486;51.034;5.262;2023-07-22T08:03:35;3.87;;;1.27;;
12838;SDS011;6486;51.034;5.262;2023-07-22T08:06:02;3.33;;;2.07;;
12838;SDS011;6486;51.034;5.262;2023-07-22T08:08:28;3.80;;;1.77;;
12838;SDS011;6486;51.034;5.262;2023-07-22T08:10:57;1.40;;;1.30;;
12838;SDS011;6486;51.034;5.262;2023-07-22T08:13:27;4.40;;;0.80;;
12838;SDS011;6486;51.034;5.262;2023-07-22T08:15:55;0.70;;;0.70;;
12838;SDS011;6486;51.034;5.262;2023-07-22T08:18:22;2.17;;;1.20;;
12838;SDS011;6486;51.034;5.262;2023-07-22T08:20:48;2.57;;;1.10;;
12838;SDS011;6486;51.034;5.262;2023-07-22T08:23:14;0.70;;;0.70;;
12838;SDS011;6486;51.034;5.262;2023-07-22T08:25:40;1.27;;;1.17;;
12838;SDS011;6486;51.034;5.262;2023-07-22T08:28:05;1.97;;;0.77;;
12838;SDS011;6486;51.034;5.262;2023-07-22T08:30:31;1.63;;;1.40;;
12838;SDS011;6486;51.034;5.262;2023-07-22T08:32:57;3.83;;;1.43;;
12838;SDS011;6486;51.034;5.262;2023-07-22T08:35:22;4.37;;;1.70;;
12838;SDS011;6486;51.034;5.262;2023-07-22T08:37:48;2.23;;;1.97;;
12838;SDS011;6486;51.034;5.262;2023-07-22T08:40:13;2.70;;;0.57;;
12838;SDS011;6486;51.034;5.262;2023-07-22T08:42:40;1.03;;;1.03;;
12838;SDS011;6486;51.034;5.262;2023-07-22T08:45:07;1.07;;;1.07;;
12838;SDS011;6486;51.034;5.262;2023-07-22T08:47:38;0.93;;;0.90;;
12838;SDS011;6486;51.034;5.262;2023-07-22T08:50:10;1.57;;;1.17;;
12838;SDS011;6486;51.034;5.262;2023-07-22T08:52:36;1.30;;;1.20;;
12838;SDS011;6486;51.034;5.262;2023-07-22T08:55:03;3.40;;;1.30;;
12838;SDS011;6486;51.034;5.262;2023-07-22T08:57:29;4.10;;;2.30;;
12838;SDS011;6486;51.034;5.262;2023-07-22T08:59:56;1.47;;;1.17;;
12838;SDS011;6486;51.034;5.262;2023-07-22T09:02:23;1.87;;;1.70;;
12838;SDS011;6486;51.034;5.262;2023-07-22T09:04:50;1.97;;;1.30;;
12838;SDS011;6486;51.034;5.262;2023-07-22T09:07:16;2.63;;;1.13;;
12838;SDS011;6486;51.034;5.262;2023-07-22T09:09:44;2.97;;;0.80;;
12838;SDS011;6486;51.034;5.262;2023-07-22T09:12:11;1.13;;;0.93;;
12838;SDS011;6486;51.034;5.262;2023-07-22T09:14:38;0.80;;;0.60;;
12838;SDS011;6486;51.034;5.262;2023-07-22T09:17:05;0.30;;;0.30;;
12838;SDS011;6486;51.034;5.262;2023-07-22T09:19:31;0.30;;;0.30;;
12838;SDS011;6486;51.034;5.262;2023-07-22T09:21:56;1.23;;;1.10;;
12838;SDS011;6486;51.034;5.262;2023-07-22T09:24:24;1.00;;;0.67;;
12838;SDS011;6486;51.034;5.262;2023-07-22T09:26:51;0.63;;;0.50;;
12838;SDS011;6486;51.034;5.262;2023-07-22T09:29:16;1.70;;;0.90;;
12838;SDS011;6486;51.034;5.262;2023-07-22T09:31:50;2.13;;;1.23;;
12838;SDS011;6486;51.034;5.262;2023-07-22T09:34:16;1.07;;;0.60;;
12838;SDS011;6486;51.034;5.262;2023-07-22T09:36:58;8.53;;;1.50;;
12838;SDS011;6486;51.034;5.262;2023-07-22T09:39:28;1.00;;;0.80;;
12838;SDS011;6486;51.034;5.262;2023-07-22T09:41:54;0.40;;;0.40;;
12838;SDS011;6486;51.034;5.262;2023-07-22T09:44:23;0.77;;;0.47;;
12838;SDS011;6486;51.034;5.262;2023-07-22T09:46:54;6.23;;;0.73;;
12838;SDS011;6486;51.034;5.262;2023-07-22T09:49:20;0.40;;;0.40;;
12838;SDS011;6486;51.034;5.262;2023-07-22T09:51:46;0.50;;;0.50;;
12838;SDS011;6486;51.034;5.262;2023-07-22T09:54:11;0.87;;;0.50;;
12838;SDS011;6486;51.034;5.262;2023-07-22T09:56:44;1.27;;;0.50;;
12838;SDS011;6486;51.034;5.262;2023-07-22T09:59:11;3.67;;;0.73;;
12838;SDS011;6486;51.034;5.262;2023-07-22T10:01:40;0.20;;;0.20;;
12838;SDS011;6486;51.034;5.262;2023-07-22T10:04:06;0.20;;;0.20;;
12838;SDS011;6486;51.034;5.262;2023-07-22T10:06:33;0.53;;;0.37;;
12838;SDS011;6486;51.034;5.262;2023-07-22T10:09:03;0.40;;;0.27;;
12838;SDS011;6486;51.034;5.262;2023-07-22T10:11:33;0.93;;;0.30;;
12838;SDS011;6486;51.034;5.262;2023-07-22T10:14:01;0.93;;;0.77;;
12838;SDS011;6486;51.034;5.262;2023-07-22T10:16:27;0.10;;;0.10;;
12838;SDS011;6486;51.034;5.262;2023-07-22T10:18:54;0.97;;;0.23;;
12838;SDS011;6486;51.034;5.262;2023-07-22T10:21:21;0.30;;;0.30;;
12838;SDS011;6486;51.034;5.262;2023-07-22T10:23:49;1.60;;;0.60;;
12838;SDS011;6486;51.034;5.262;2023-07-22T10:26:18;2.03;;;0.47;;
12838;SDS011;6486;51.034;5.262;2023-07-22T10:28:45;1.03;;;0.80;;
12838;SDS011;6486;51.034;5.262;2023-07-22T10:31:11;0.20;;;0.20;;
12838;SDS011;6486;51.034;5.262;2023-07-22T10:33:47;0.40;;;0.30;;
12838;SDS011;6486;51.034;5.262;2023-07-22T10:36:16;0.77;;;0.47;;
12838;SDS011;6486;51.034;5.262;2023-07-22T10:38:42;0.50;;;0.40;;
12838;SDS011;6486;51.034;5.262;2023-07-22T10:41:12;0.70;;;0.30;;
12838;SDS011;6486;51.034;5.262;2023-07-22T10:43:57;0.20;;;0.20;;
12838;SDS011;6486;51.034;5.262;2023-07-22T10:46:36;0.50;;;0.50;;
12838;SDS011;6486;51.034;5.262;2023-07-22T10:49:15;0.97;;;0.23;;
12838;SDS011;6486;51.034;5.262;2023-07-22T10:51:41;0.70;;;0.70;;
12838;SDS011;6486;51.034;5.262;2023-07-22T10:54:30;0.57;;;0.57;;
12838;SDS011;6486;51.034;5.262;2023-07-22T10:57:22;5.13;;;0.30;;
12838;SDS011;6486;51.034;5.262;2023-07-22T10:59:50;1.13;;;0.20;;
12838;SDS011;6486;51.034;5.262;2023-07-22T11:02:34;0.37;;;0.30;;
12838;SDS011;6486;51.034;5.262;2023-07-22T11:05:01;0.20;;;0.20;;
12838;SDS011;6486;51.034;5.262;2023-07-22T11:07:34;0.13;;;0.10;;
12838;SDS011;6486;51.034;5.262;2023-07-22T11:10:18;0.20;;;0.20;;
12838;SDS011;6486;51.034;5.262;2023-07-22T11:12:44;0.50;;;0.50;;
12838;SDS011;6486;51.034;5.262;2023-07-22T11:15:10;0.23;;;0.23;;
12838;SDS011;6486;51.034;5.262;2023-07-22T11:17:39;0.87;;;0.43;;
12838;SDS011;6486;51.034;5.262;2023-07-22T11:20:05;2.43;;;0.70;;
12838;SDS011;6486;51.034;5.262;2023-07-22T11:22:31;0.47;;;0.20;;
12838;SDS011;6486;51.034;5.262;2023-07-22T11:24:57;1.30;;;0.47;;
12838;SDS011;6486;51.034;5.262;2023-07-22T11:27:25;0.30;;;0.30;;
12838;SDS011;6486;51.034;5.262;2023-07-22T11:29:51;3.40;;;0.50;;
12838;SDS011;6486;51.034;5.262;2023-07-22T11:32:17;0.30;;;0.30;;
12838;SDS011;6486;51.034;5.262;2023-07-22T11:34:47;0.43;;;0.43;;
12838;SDS011;6486;51.034;5.262;2023-07-22T11:37:13;0.93;;;0.50;;
12838;SDS011;6486;51.034;5.262;2023-07-22T11:39:40;0.23;;;0.23;;
12838;SDS011;6486;51.034;5.262;2023-07-22T11:42:07;0.70;;;0.50;;
12838;SDS011;6486;51.034;5.262;2023-07-22T11:44:32;0.30;;;0.30;;
12838;SDS011;6486;51.034;5.262;2023-07-22T11:46:59;1.03;;;0.40;;
12838;SDS011;6486;51.034;5.262;2023-07-22T11:51:58;0.40;;;0.30;;
12838;SDS011;6486;51.034;5.262;2023-07-22T11:54:26;0.30;;;0.30;;
12838;SDS011;6486;51.034;5.262;2023-07-22T11:56:52;0.93;;;0.30;;
12838;SDS011;6486;51.034;5.262;2023-07-22T11:59:32;0.83;;;0.30;;
12838;SDS011;6486;51.034;5.262;2023-07-22T12:02:02;0.20;;;0.20;;
12838;SDS011;6486;51.034;5.262;2023-07-22T12:04:31;0.30;;;0.30;;
12838;SDS011;6486;51.034;5.262;2023-07-22T12:06:59;0.70;;;0.40;;
12838;SDS011;6486;51.034;5.262;2023-07-22T12:09:25;0.27;;;0.27;;
12838;SDS011;6486;51.034;5.262;2023-07-22T12:11:57;0.67;;;0.27;;
12838;SDS011;6486;51.034;5.262;2023-07-22T12:14:24;0.93;;;0.20;;
12838;SDS011;6486;51.034;5.262;2023-07-22T12:16:57;3.30;;;0.40;;
12838;SDS011;6486;51.034;5.262;2023-07-22T12:19:23;0.67;;;0.20;;
12838;SDS011;6486;51.034;5.262;2023-07-22T12:21:49;0.73;;;0.30;;
12838;SDS011;6486;51.034;5.262;2023-07-22T12:24:15;0.40;;;0.40;;
12838;SDS011;6486;51.034;5.262;2023-07-22T12:26:40;0.20;;;0.17;;
12838;SDS011;6486;51.034;5.262;2023-07-22T12:29:07;1.33;;;0.20;;
12838;SDS011;6486;51.034;5.262;2023-07-22T12:31:33;0.13;;;0.13;;
12838;SDS011;6486;51.034;5.262;2023-07-22T12:33:59;2.13;;;0.63;;
12838;SDS011;6486;51.034;5.262;2023-07-22T12:36:24;0.20;;;0.20;;
12838;SDS011;6486;51.034;5.262;2023-07-22T12:38:50;0.20;;;0.20;;
12838;SDS011;6486;51.034;5.262;2023-07-22T12:41:16;1.03;;;0.57;;
12838;SDS011;6486;51.034;5.262;2023-07-22T12:43:42;0.73;;;0.33;;
12838;SDS011;6486;51.034;5.262;2023-07-22T12:46:08;0.30;;;0.30;;
12838;SDS011;6486;51.034;5.262;2023-07-22T12:48:33;0.30;;;0.23;;
12838;SDS011;6486;51.034;5.262;2023-07-22T12:50:59;0.20;;;0.17;;
12838;SDS011;6486;51.034;5.262;2023-07-22T12:53:25;0.77;;;0.30;;
12838;SDS011;6486;51.034;5.262;2023-07-22T12:55:52;0.60;;;0.50;;
12838;SDS011;6486;51.034;5.262;2023-07-22T12:58:17;0.70;;;0.40;;
12838;SDS011;6486;51.034;5.262;2023-07-22T13:00:43;2.53;;;1.43;;
12838;SDS011;6486;51.034;5.262;2023-07-22T13:03:08;1.67;;;0.90;;
12838;SDS011;6486;51.034;5.262;2023-07-22T13:05:34;1.13;;;0.40;;
12838;SDS011;6486;51.034;5.262;2023-07-22T13:08:00;0.30;;;0.30;;
12838;SDS011;6486;51.034;5.262;2023-07-22T13:10:27;0.30;;;0.30;;
12838;SDS011;6486;51.034;5.262;2023-07-22T13:12:54;0.20;;;0.20;;
12838;SDS011;6486;51.034;5.262;2023-07-22T13:15:20;0.40;;;0.40;;
12838;SDS011;6486;51.034;5.262;2023-07-22T13:17:46;0.30;;;0.30;;
12838;SDS011;6486;51.034;5.262;2023-07-22T13:20:12;0.43;;;0.43;;
12838;SDS011;6486;51.034;5.262;2023-07-22T13:22:37;0.47;;;0.40;;
12838;SDS011;6486;51.034;5.262;2023-07-22T13:25:04;1.80;;;1.30;;
12838;SDS011;6486;51.034;5.262;2023-07-22T13:27:30;0.10;;;0.10;;
12838;SDS011;6486;51.034;5.262;2023-07-22T13:29:56;0.53;;;0.37;;
12838;SDS011;6486;51.034;5.262;2023-07-22T13:32:22;0.63;;;0.30;;
12838;SDS011;6486;51.034;5.262;2023-07-22T13:34:48;0.57;;;0.53;;
12838;SDS011;6486;51.034;5.262;2023-07-22T13:37:14;2.57;;;0.47;;
12838;SDS011;6486;51.034;5.262;2023-07-22T13:39:39;1.03;;;0.60;;
12838;SDS011;6486;51.034;5.262;2023-07-22T13:42:05;1.23;;;0.50;;
12838;SDS011;6486;51.034;5.262;2023-07-22T13:44:31;0.70;;;0.50;;
12838;SDS011;6486;51.034;5.262;2023-07-22T13:46:56;0.33;;;0.33;;
12838;SDS011;6486;51.034;5.262;2023-07-22T13:49:22;0.63;;;0.30;;
12838;SDS011;6486;51.034;5.262;2023-07-22T13:51:48;0.83;;;0.37;;
12838;SDS011;6486;51.034;5.262;2023-07-22T13:54:13;1.80;;;0.70;;
12838;SDS011;6486;51.034;5.262;2023-07-22T13:56:39;1.47;;;0.57;;
12838;SDS011;6486;51.034;5.262;2023-07-22T13:59:05;0.63;;;0.43;;
12838;SDS011;6486;51.034;5.262;2023-07-22T14:01:31;1.20;;;0.40;;
12838;SDS011;6486;51.034;5.262;2023-07-22T14:03:56;1.10;;;0.50;;
12838;SDS011;6486;51.034;5.262;2023-07-22T14:06:22;0.57;;;0.57;;
12838;SDS011;6486;51.034;5.262;2023-07-22T14:08:48;0.47;;;0.33;;
12838;SDS011;6486;51.034;5.262;2023-07-22T14:11:14;1.53;;;0.30;;
12838;SDS011;6486;51.034;5.262;2023-07-22T14:13:39;0.83;;;0.60;;
12838;SDS011;6486;51.034;5.262;2023-07-22T14:16:05;0.93;;;0.67;;
12838;SDS011;6486;51.034;5.262;2023-07-22T14:18:31;0.93;;;0.23;;
12838;SDS011;6486;51.034;5.262;2023-07-22T14:20:58;0.50;;;0.30;;
12838;SDS011;6486;51.034;5.262;2023-07-22T14:23:24;0.60;;;0.40;;
12838;SDS011;6486;51.034;5.262;2023-07-22T14:25:49;0.10;;;0.10;;
12838;SDS011;6486;51.034;5.262;2023-07-22T14:28:15;0.67;;;0.50;;
12838;SDS011;6486;51.034;5.262;2023-07-22T14:30:40;0.23;;;0.23;;
12838;SDS011;6486;51.034;5.262;2023-07-22T14:33:06;0.30;;;0.30;;
12838;SDS011;6486;51.034;5.262;2023-07-22T14:35:32;1.30;;;0.50;;
12838;SDS011;6486;51.034;5.262;2023-07-22T14:37:58;1.97;;;0.30;;
12838;SDS011;6486;51.034;5.262;2023-07-22T14:40:25;1.63;;;0.50;;
12838;SDS011;6486;51.034;5.262;2023-07-22T14:42:51;1.47;;;0.60;;
12838;SDS011;6486;51.034;5.262;2023-07-22T14:45:16;0.10;;;0.10;;
12838;SDS011;6486;51.034;5.262;2023-07-22T14:47:42;0.50;;;0.50;;
12838;SDS011;6486;51.034;5.262;2023-07-22T14:50:08;0.30;;;0.30;;
12838;SDS011;6486;51.034;5.262;2023-07-22T14:52:34;0.30;;;0.30;;
12838;SDS011;6486;51.034;5.262;2023-07-22T14:55:00;0.30;;;0.23;;
12838;SDS011;6486;51.034;5.262;2023-07-22T14:57:26;0.50;;;0.20;;
12838;SDS011;6486;51.034;5.262;2023-07-22T14:59:54;1.10;;;0.73;;